This is the latest recevied weather packets stored in our database for station/object VE2CSM-13. If no packets are shown the sender has not sent any weather packets the latest 10 day(s).
| Time | Temp. | Humidity | Pressure | Rain* | Wind** | Luminosity | Snow |
|---|---|---|---|---|---|---|---|
| 1777875126 | -1.67° C | 85% | 1016.3 hPa | 0 mm | - | - | - |
| 1777875006 | -1.67° C | 85% | 1016.3 hPa | 0 mm | - | - | - |
| 1777874887 | -1.67° C | 85% | 1016.3 hPa | 0 mm | - | - | - |
| 1777874767 | -1.67° C | 86% | 1016.2 hPa | 0 mm | - | - | - |
| 1777874646 | -1.67° C | 86% | 1016.2 hPa | 0 mm | - | - | - |
| 1777874587 | -1.67° C | 86% | 1016.2 hPa | 0 mm | - | - | - |
| 1777874527 | -1.67° C | 86% | 1016.2 hPa | 0 mm | - | - | - |
| 1777872902 | -1.11° C | 84% | 1016.4 hPa | 0 mm | - | - | - |
| 1777871103 | -1.11° C | 83% | 1016.7 hPa | 0 mm | - | - | - |
| 1777869302 | -0.56° C | 81% | 1016.7 hPa | 0 mm | - | - | - |
| 1777867503 | 0° C | 78% | 1017 hPa | 0 mm | - | - | - |
| 1777865702 | 0° C | 79% | 1017 hPa | 0 mm | - | - | - |
| 1777842303 | 10° C | 38% | 1016.8 hPa | 0 mm | - | - | - |
| 1777835103 | 10° C | 37% | 1016.9 hPa | 0 mm | - | - | - |
| 1777800902 | -0.56° C | 95% | 1020.7 hPa | 0 mm | - | - | - |
| 1777797302 | 0° C | 95% | 1020.8 hPa | 0 mm | - | - | - |
| 1777795503 | 0.56° C | 95% | 1020.7 hPa | 0 mm | - | - | - |
| 1777793582 | 1.11° C | 95% | 1020.8 hPa | 0 mm | - | - | - |
| 1777792622 | 1.11° C | 95% | 1020.6 hPa | 0 mm | - | - | - |
| 1777791662 | 1.11° C | 95% | 1020.8 hPa | 0 mm | - | - | - |
| 1777791182 | 0.56° C | 95% | 1020.9 hPa | 0 mm | - | - | - |
| 1777790222 | 0.56° C | 95% | 1021 hPa | 0 mm | - | - | - |
| 1777789742 | 0.56° C | 95% | 1020.9 hPa | 0 mm | - | - | - |
| 1777789502 | 0.56° C | 95% | 1020.9 hPa | 0 mm | - | - | - |
| 1777789262 | 0.56° C | 95% | 1020.9 hPa | 0 mm | - | - | - |
* Rain latest hour (hover to see other rain measurements)
** Current wind speed in m/s (hover to see current wind gust speed)